sensor_id;sensor_type;location;lat;lon;timestamp;P1;durP1;ratioP1;P2;durP2;ratioP2
54384;SDS011;40284;52.878;5.998;2023-07-20T00:02:02;3.47;;;2.33;;
54384;SDS011;40284;52.878;5.998;2023-07-20T00:04:30;3.47;;;2.63;;
54384;SDS011;40284;52.878;5.998;2023-07-20T00:06:57;3.83;;;3.15;;
54384;SDS011;40284;52.878;5.998;2023-07-20T00:09:24;8.90;;;3.28;;
54384;SDS011;40284;52.878;5.998;2023-07-20T00:11:50;3.80;;;2.92;;
54384;SDS011;40284;52.878;5.998;2023-07-20T00:14:17;4.63;;;3.35;;
54384;SDS011;40284;52.878;5.998;2023-07-20T00:16:43;4.57;;;3.13;;
54384;SDS011;40284;52.878;5.998;2023-07-20T00:19:09;4.07;;;3.25;;
54384;SDS011;40284;52.878;5.998;2023-07-20T00:21:35;5.82;;;3.75;;
54384;SDS011;40284;52.878;5.998;2023-07-20T00:24:02;7.68;;;4.80;;
54384;SDS011;40284;52.878;5.998;2023-07-20T00:26:28;11.80;;;6.70;;
54384;SDS011;40284;52.878;5.998;2023-07-20T00:28:54;17.02;;;8.80;;
54384;SDS011;40284;52.878;5.998;2023-07-20T00:31:21;11.93;;;7.45;;
54384;SDS011;40284;52.878;5.998;2023-07-20T00:33:47;17.15;;;8.73;;
54384;SDS011;40284;52.878;5.998;2023-07-20T00:36:13;22.67;;;11.60;;
54384;SDS011;40284;52.878;5.998;2023-07-20T00:38:39;25.80;;;11.95;;
54384;SDS011;40284;52.878;5.998;2023-07-20T00:41:06;27.48;;;13.48;;
54384;SDS011;40284;52.878;5.998;2023-07-20T00:43:32;16.92;;;8.00;;
54384;SDS011;40284;52.878;5.998;2023-07-20T00:45:58;6.80;;;5.13;;
54384;SDS011;40284;52.878;5.998;2023-07-20T00:48:24;6.75;;;4.07;;
54384;SDS011;40284;52.878;5.998;2023-07-20T00:50:50;4.15;;;3.60;;
54384;SDS011;40284;52.878;5.998;2023-07-20T00:53:16;5.00;;;4.03;;
54384;SDS011;40284;52.878;5.998;2023-07-20T00:55:43;3.95;;;3.58;;
54384;SDS011;40284;52.878;5.998;2023-07-20T00:58:09;3.85;;;3.30;;
54384;SDS011;40284;52.878;5.998;2023-07-20T01:00:36;4.13;;;3.75;;
54384;SDS011;40284;52.878;5.998;2023-07-20T01:03:02;4.53;;;3.92;;
54384;SDS011;40284;52.878;5.998;2023-07-20T01:05:42;4.47;;;3.50;;
54384;SDS011;40284;52.878;5.998;2023-07-20T01:08:14;4.60;;;4.20;;
54384;SDS011;40284;52.878;5.998;2023-07-20T01:10:46;5.23;;;3.87;;
54384;SDS011;40284;52.878;5.998;2023-07-20T01:13:14;3.92;;;3.42;;
54384;SDS011;40284;52.878;5.998;2023-07-20T01:15:40;4.45;;;4.05;;
54384;SDS011;40284;52.878;5.998;2023-07-20T01:18:06;4.47;;;4.00;;
54384;SDS011;40284;52.878;5.998;2023-07-20T01:20:33;5.10;;;4.18;;
54384;SDS011;40284;52.878;5.998;2023-07-20T01:32:59;4.70;;;4.20;;
54384;SDS011;40284;52.878;5.998;2023-07-20T01:35:27;5.30;;;4.63;;
54384;SDS011;40284;52.878;5.998;2023-07-20T01:37:54;4.75;;;4.25;;
54384;SDS011;40284;52.878;5.998;2023-07-20T01:40:20;5.35;;;4.75;;
54384;SDS011;40284;52.878;5.998;2023-07-20T01:42:48;4.60;;;4.18;;
54384;SDS011;40284;52.878;5.998;2023-07-20T01:45:14;4.45;;;4.00;;
54384;SDS011;40284;52.878;5.998;2023-07-20T01:47:40;7.32;;;4.70;;
54384;SDS011;40284;52.878;5.998;2023-07-20T01:50:07;5.70;;;3.97;;
54384;SDS011;40284;52.878;5.998;2023-07-20T01:52:34;6.85;;;4.95;;
54384;SDS011;40284;52.878;5.998;2023-07-20T01:55:00;5.78;;;4.72;;
54384;SDS011;40284;52.878;5.998;2023-07-20T01:57:26;6.55;;;5.78;;
54384;SDS011;40284;52.878;5.998;2023-07-20T01:59:52;6.45;;;5.10;;
54384;SDS011;40284;52.878;5.998;2023-07-20T02:02:18;5.05;;;4.53;;
54384;SDS011;40284;52.878;5.998;2023-07-20T02:04:45;5.50;;;4.55;;
54384;SDS011;40284;52.878;5.998;2023-07-20T02:07:11;5.63;;;4.43;;
54384;SDS011;40284;52.878;5.998;2023-07-20T02:09:37;6.53;;;4.40;;
54384;SDS011;40284;52.878;5.998;2023-07-20T02:12:04;6.10;;;4.28;;
54384;SDS011;40284;52.878;5.998;2023-07-20T02:14:30;5.30;;;4.28;;
54384;SDS011;40284;52.878;5.998;2023-07-20T02:16:56;5.78;;;4.90;;
54384;SDS011;40284;52.878;5.998;2023-07-20T02:19:25;4.72;;;4.07;;
54384;SDS011;40284;52.878;5.998;2023-07-20T02:21:52;6.03;;;4.63;;
54384;SDS011;40284;52.878;5.998;2023-07-20T02:24:18;4.63;;;3.85;;
54384;SDS011;40284;52.878;5.998;2023-07-20T02:26:44;4.63;;;3.80;;
54384;SDS011;40284;52.878;5.998;2023-07-20T02:29:10;4.20;;;3.80;;
54384;SDS011;40284;52.878;5.998;2023-07-20T02:31:39;4.57;;;4.18;;
54384;SDS011;40284;52.878;5.998;2023-07-20T02:34:05;4.70;;;3.85;;
54384;SDS011;40284;52.878;5.998;2023-07-20T02:36:32;5.88;;;4.43;;
54384;SDS011;40284;52.878;5.998;2023-07-20T02:38:58;6.15;;;3.92;;
54384;SDS011;40284;52.878;5.998;2023-07-20T02:41:24;5.78;;;3.90;;
54384;SDS011;40284;52.878;5.998;2023-07-20T02:43:50;5.38;;;4.22;;
54384;SDS011;40284;52.878;5.998;2023-07-20T02:46:16;11.18;;;5.20;;
54384;SDS011;40284;52.878;5.998;2023-07-20T02:48:42;16.05;;;9.25;;
54384;SDS011;40284;52.878;5.998;2023-07-20T02:51:09;5.93;;;4.50;;
54384;SDS011;40284;52.878;5.998;2023-07-20T02:53:36;5.20;;;4.03;;
54384;SDS011;40284;52.878;5.998;2023-07-20T02:56:03;6.05;;;4.68;;
54384;SDS011;40284;52.878;5.998;2023-07-20T02:58:29;16.15;;;8.90;;
54384;SDS011;40284;52.878;5.998;2023-07-20T03:00:55;13.48;;;7.47;;
54384;SDS011;40284;52.878;5.998;2023-07-20T03:03:21;6.32;;;4.80;;
54384;SDS011;40284;52.878;5.998;2023-07-20T03:05:47;5.28;;;4.18;;
54384;SDS011;40284;52.878;5.998;2023-07-20T03:08:19;5.05;;;4.10;;
54384;SDS011;40284;52.878;5.998;2023-07-20T03:10:45;4.07;;;3.67;;
54384;SDS011;40284;52.878;5.998;2023-07-20T03:13:11;6.40;;;4.10;;
54384;SDS011;40284;52.878;5.998;2023-07-20T03:15:39;4.80;;;4.15;;
54384;SDS011;40284;52.878;5.998;2023-07-20T03:18:05;4.53;;;3.70;;
54384;SDS011;40284;52.878;5.998;2023-07-20T03:20:31;5.85;;;4.10;;
54384;SDS011;40284;52.878;5.998;2023-07-20T03:22:58;4.28;;;3.50;;
54384;SDS011;40284;52.878;5.998;2023-07-20T03:25:24;4.50;;;3.75;;
54384;SDS011;40284;52.878;5.998;2023-07-20T03:27:50;5.07;;;4.00;;
54384;SDS011;40284;52.878;5.998;2023-07-20T03:30:16;4.18;;;3.78;;
54384;SDS011;40284;52.878;5.998;2023-07-20T03:32:42;4.72;;;3.65;;
54384;SDS011;40284;52.878;5.998;2023-07-20T03:35:08;4.15;;;3.63;;
54384;SDS011;40284;52.878;5.998;2023-07-20T03:37:34;4.88;;;3.72;;
54384;SDS011;40284;52.878;5.998;2023-07-20T03:40:02;5.40;;;3.90;;
54384;SDS011;40284;52.878;5.998;2023-07-20T03:42:28;5.68;;;4.10;;
54384;SDS011;40284;52.878;5.998;2023-07-20T03:44:54;5.55;;;4.85;;
54384;SDS011;40284;52.878;5.998;2023-07-20T03:47:20;6.00;;;4.93;;
54384;SDS011;40284;52.878;5.998;2023-07-20T03:49:46;7.47;;;5.05;;
54384;SDS011;40284;52.878;5.998;2023-07-20T03:52:12;5.78;;;4.68;;
54384;SDS011;40284;52.878;5.998;2023-07-20T03:54:38;6.95;;;4.47;;
54384;SDS011;40284;52.878;5.998;2023-07-20T03:57:04;7.88;;;4.07;;
54384;SDS011;40284;52.878;5.998;2023-07-20T03:59:30;4.72;;;4.28;;
54384;SDS011;40284;52.878;5.998;2023-07-20T04:01:56;5.90;;;4.22;;
54384;SDS011;40284;52.878;5.998;2023-07-20T04:04:22;5.45;;;4.35;;
54384;SDS011;40284;52.878;5.998;2023-07-20T04:06:48;4.15;;;3.58;;
54384;SDS011;40284;52.878;5.998;2023-07-20T04:09:15;7.97;;;4.78;;
54384;SDS011;40284;52.878;5.998;2023-07-20T04:11:41;4.75;;;3.60;;
54384;SDS011;40284;52.878;5.998;2023-07-20T04:14:08;4.40;;;4.00;;
54384;SDS011;40284;52.878;5.998;2023-07-20T04:16:34;7.60;;;4.25;;
54384;SDS011;40284;52.878;5.998;2023-07-20T04:19:00;7.93;;;4.97;;
54384;SDS011;40284;52.878;5.998;2023-07-20T04:21:26;5.63;;;5.00;;
54384;SDS011;40284;52.878;5.998;2023-07-20T04:23:52;6.07;;;5.18;;
54384;SDS011;40284;52.878;5.998;2023-07-20T04:26:18;7.43;;;4.85;;
54384;SDS011;40284;52.878;5.998;2023-07-20T04:28:44;7.25;;;4.20;;
54384;SDS011;40284;52.878;5.998;2023-07-20T04:31:14;5.32;;;4.80;;
54384;SDS011;40284;52.878;5.998;2023-07-20T04:33:41;5.38;;;4.05;;
54384;SDS011;40284;52.878;5.998;2023-07-20T04:36:07;6.55;;;4.18;;
54384;SDS011;40284;52.878;5.998;2023-07-20T04:38:34;6.97;;;3.80;;
54384;SDS011;40284;52.878;5.998;2023-07-20T04:41:00;7.03;;;3.88;;
54384;SDS011;40284;52.878;5.998;2023-07-20T04:43:26;4.40;;;3.85;;
54384;SDS011;40284;52.878;5.998;2023-07-20T04:45:53;6.38;;;4.30;;
54384;SDS011;40284;52.878;5.998;2023-07-20T04:48:19;5.07;;;4.57;;
54384;SDS011;40284;52.878;5.998;2023-07-20T04:50:45;5.32;;;4.40;;
54384;SDS011;40284;52.878;5.998;2023-07-20T04:53:11;7.80;;;4.95;;
54384;SDS011;40284;52.878;5.998;2023-07-20T04:55:38;4.80;;;4.30;;
54384;SDS011;40284;52.878;5.998;2023-07-20T04:58:04;6.78;;;4.60;;
54384;SDS011;40284;52.878;5.998;2023-07-20T05:00:32;6.10;;;4.38;;
54384;SDS011;40284;52.878;5.998;2023-07-20T05:02:58;7.15;;;5.47;;
54384;SDS011;40284;52.878;5.998;2023-07-20T05:05:24;5.43;;;4.93;;
54384;SDS011;40284;52.878;5.998;2023-07-20T05:07:50;5.07;;;4.55;;
54384;SDS011;40284;52.878;5.998;2023-07-20T05:10:17;4.80;;;3.90;;
54384;SDS011;40284;52.878;5.998;2023-07-20T05:12:43;5.35;;;4.38;;
54384;SDS011;40284;52.878;5.998;2023-07-20T05:15:09;5.63;;;4.68;;
54384;SDS011;40284;52.878;5.998;2023-07-20T05:17:35;6.03;;;3.90;;
54384;SDS011;40284;52.878;5.998;2023-07-20T05:20:01;4.18;;;3.78;;
54384;SDS011;40284;52.878;5.998;2023-07-20T05:22:29;3.92;;;3.22;;
54384;SDS011;40284;52.878;5.998;2023-07-20T05:24:55;4.40;;;3.22;;
54384;SDS011;40284;52.878;5.998;2023-07-20T05:27:21;3.70;;;2.80;;
54384;SDS011;40284;52.878;5.998;2023-07-20T05:29:47;7.57;;;3.28;;
54384;SDS011;40284;52.878;5.998;2023-07-20T05:32:13;4.05;;;3.10;;
54384;SDS011;40284;52.878;5.998;2023-07-20T05:34:39;3.67;;;3.25;;
54384;SDS011;40284;52.878;5.998;2023-07-20T05:37:05;4.55;;;3.60;;
54384;SDS011;40284;52.878;5.998;2023-07-20T05:39:32;4.32;;;2.55;;
54384;SDS011;40284;52.878;5.998;2023-07-20T05:41:58;4.50;;;3.15;;
54384;SDS011;40284;52.878;5.998;2023-07-20T05:44:24;5.95;;;3.78;;
54384;SDS011;40284;52.878;5.998;2023-07-20T05:46:50;4.78;;;3.22;;
54384;SDS011;40284;52.878;5.998;2023-07-20T05:49:16;4.28;;;2.90;;
54384;SDS011;40284;52.878;5.998;2023-07-20T05:51:42;4.28;;;2.85;;
54384;SDS011;40284;52.878;5.998;2023-07-20T05:54:08;4.78;;;2.70;;
54384;SDS011;40284;52.878;5.998;2023-07-20T05:56:34;3.53;;;2.70;;
54384;SDS011;40284;52.878;5.998;2023-07-20T05:59:00;3.20;;;1.90;;
54384;SDS011;40284;52.878;5.998;2023-07-20T06:01:27;4.38;;;2.30;;
54384;SDS011;40284;52.878;5.998;2023-07-20T06:03:53;5.53;;;1.90;;
54384;SDS011;40284;52.878;5.998;2023-07-20T06:06:19;4.47;;;2.03;;
54384;SDS011;40284;52.878;5.998;2023-07-20T06:08:45;4.40;;;2.00;;
54384;SDS011;40284;52.878;5.998;2023-07-20T06:11:11;6.13;;;2.20;;
54384;SDS011;40284;52.878;5.998;2023-07-20T06:13:37;3.97;;;2.30;;
54384;SDS011;40284;52.878;5.998;2023-07-20T06:16:04;2.95;;;1.80;;
54384;SDS011;40284;52.878;5.998;2023-07-20T06:18:30;4.90;;;1.92;;
54384;SDS011;40284;52.878;5.998;2023-07-20T06:20:56;2.60;;;2.05;;
54384;SDS011;40284;52.878;5.998;2023-07-20T06:23:22;2.63;;;1.67;;
54384;SDS011;40284;52.878;5.998;2023-07-20T06:25:48;3.88;;;2.25;;
54384;SDS011;40284;52.878;5.998;2023-07-20T06:28:14;2.55;;;1.88;;
54384;SDS011;40284;52.878;5.998;2023-07-20T06:30:40;5.53;;;2.08;;
54384;SDS011;40284;52.878;5.998;2023-07-20T06:33:06;6.45;;;1.67;;
54384;SDS011;40284;52.878;5.998;2023-07-20T06:35:33;4.18;;;1.88;;
54384;SDS011;40284;52.878;5.998;2023-07-20T06:37:59;4.30;;;1.73;;
54384;SDS011;40284;52.878;5.998;2023-07-20T06:40:26;3.00;;;1.88;;
54384;SDS011;40284;52.878;5.998;2023-07-20T06:42:52;5.10;;;1.60;;
54384;SDS011;40284;52.878;5.998;2023-07-20T06:45:18;3.88;;;1.42;;
54384;SDS011;40284;52.878;5.998;2023-07-20T06:47:44;3.30;;;1.60;;
54384;SDS011;40284;52.878;5.998;2023-07-20T06:50:11;4.72;;;1.33;;
54384;SDS011;40284;52.878;5.998;2023-07-20T06:52:37;6.03;;;1.58;;
54384;SDS011;40284;52.878;5.998;2023-07-20T06:55:05;4.18;;;1.20;;
54384;SDS011;40284;52.878;5.998;2023-07-20T06:57:31;2.90;;;1.20;;
54384;SDS011;40284;52.878;5.998;2023-07-20T06:59:57;4.32;;;1.63;;
54384;SDS011;40284;52.878;5.998;2023-07-20T07:02:23;3.80;;;1.35;;
54384;SDS011;40284;52.878;5.998;2023-07-20T07:04:49;3.88;;;1.10;;
54384;SDS011;40284;52.878;5.998;2023-07-20T07:07:15;2.75;;;1.60;;
54384;SDS011;40284;52.878;5.998;2023-07-20T07:09:42;4.72;;;0.98;;
54384;SDS011;40284;52.878;5.998;2023-07-20T07:12:08;4.47;;;1.13;;
54384;SDS011;40284;52.878;5.998;2023-07-20T07:14:34;2.65;;;1.13;;
54384;SDS011;40284;52.878;5.998;2023-07-20T07:17:00;3.92;;;1.70;;
54384;SDS011;40284;52.878;5.998;2023-07-20T07:19:27;3.53;;;1.20;;
54384;SDS011;40284;52.878;5.998;2023-07-20T07:21:53;2.85;;;1.33;;
54384;SDS011;40284;52.878;5.998;2023-07-20T07:24:19;1.98;;;1.00;;
54384;SDS011;40284;52.878;5.998;2023-07-20T07:26:44;6.20;;;1.10;;
54384;SDS011;40284;52.878;5.998;2023-07-20T07:29:11;1.95;;;1.10;;
54384;SDS011;40284;52.878;5.998;2023-07-20T07:31:37;3.97;;;1.50;;
54384;SDS011;40284;52.878;5.998;2023-07-20T07:34:03;4.45;;;1.35;;
54384;SDS011;40284;52.878;5.998;2023-07-20T07:36:32;1.98;;;1.10;;
54384;SDS011;40284;52.878;5.998;2023-07-20T07:38:59;7.03;;;3.17;;
54384;SDS011;40284;52.878;5.998;2023-07-20T07:41:25;5.95;;;2.20;;
54384;SDS011;40284;52.878;5.998;2023-07-20T07:43:51;9.85;;;1.90;;
54384;SDS011;40284;52.878;5.998;2023-07-20T07:46:17;4.05;;;1.35;;
54384;SDS011;40284;52.878;5.998;2023-07-20T07:48:43;6.40;;;1.95;;
54384;SDS011;40284;52.878;5.998;2023-07-20T07:51:09;6.00;;;1.30;;
54384;SDS011;40284;52.878;5.998;2023-07-20T07:53:35;5.75;;;2.10;;
54384;SDS011;40284;52.878;5.998;2023-07-20T07:56:02;3.38;;;1.30;;
54384;SDS011;40284;52.878;5.998;2023-07-20T07:58:28;3.90;;;1.38;;
54384;SDS011;40284;52.878;5.998;2023-07-20T08:00:55;5.18;;;1.65;;
54384;SDS011;40284;52.878;5.998;2023-07-20T08:03:21;2.83;;;1.23;;
54384;SDS011;40284;52.878;5.998;2023-07-20T08:05:49;3.53;;;1.50;;
54384;SDS011;40284;52.878;5.998;2023-07-20T08:08:15;4.05;;;1.10;;
54384;SDS011;40284;52.878;5.998;2023-07-20T08:10:41;2.92;;;1.00;;
54384;SDS011;40284;52.878;5.998;2023-07-20T08:13:07;3.28;;;1.30;;
54384;SDS011;40284;52.878;5.998;2023-07-20T08:15:34;4.20;;;1.40;;
54384;SDS011;40284;52.878;5.998;2023-07-20T08:18:00;8.50;;;1.35;;
54384;SDS011;40284;52.878;5.998;2023-07-20T08:20:26;4.03;;;1.10;;
54384;SDS011;40284;52.878;5.998;2023-07-20T08:22:52;6.90;;;1.50;;
54384;SDS011;40284;52.878;5.998;2023-07-20T08:25:19;6.18;;;1.35;;
54384;SDS011;40284;52.878;5.998;2023-07-20T08:27:45;2.50;;;1.42;;
54384;SDS011;40284;52.878;5.998;2023-07-20T08:30:12;4.63;;;1.42;;
54384;SDS011;40284;52.878;5.998;2023-07-20T08:32:38;3.95;;;1.00;;
54384;SDS011;40284;52.878;5.998;2023-07-20T08:35:05;2.17;;;0.85;;
54384;SDS011;40284;52.878;5.998;2023-07-20T08:37:31;2.13;;;1.00;;
54384;SDS011;40284;52.878;5.998;2023-07-20T08:39:57;1.38;;;1.00;;
54384;SDS011;40284;52.878;5.998;2023-07-20T08:42:23;1.23;;;0.70;;
54384;SDS011;40284;52.878;5.998;2023-07-20T08:44:49;3.33;;;1.05;;
54384;SDS011;40284;52.878;5.998;2023-07-20T08:47:18;5.82;;;1.80;;
54384;SDS011;40284;52.878;5.998;2023-07-20T08:49:45;1.90;;;0.82;;
54384;SDS011;40284;52.878;5.998;2023-07-20T08:52:14;2.10;;;0.70;;
54384;SDS011;40284;52.878;5.998;2023-07-20T08:54:40;2.42;;;1.00;;
54384;SDS011;40284;52.878;5.998;2023-07-20T08:57:06;2.90;;;1.13;;
54384;SDS011;40284;52.878;5.998;2023-07-20T08:59:33;2.60;;;1.10;;
54384;SDS011;40284;52.878;5.998;2023-07-20T09:02:00;2.47;;;1.08;;
54384;SDS011;40284;52.878;5.998;2023-07-20T09:04:26;3.78;;;0.95;;
54384;SDS011;40284;52.878;5.998;2023-07-20T09:06:52;2.85;;;1.20;;
54384;SDS011;40284;52.878;5.998;2023-07-20T09:09:18;2.63;;;0.93;;
54384;SDS011;40284;52.878;5.998;2023-07-20T09:11:48;2.40;;;0.90;;
54384;SDS011;40284;52.878;5.998;2023-07-20T09:14:14;1.60;;;1.00;;
54384;SDS011;40284;52.878;5.998;2023-07-20T09:16:47;4.00;;;1.10;;
54384;SDS011;40284;52.878;5.998;2023-07-20T09:19:14;3.97;;;1.00;;
54384;SDS011;40284;52.878;5.998;2023-07-20T09:21:43;2.85;;;1.10;;
54384;SDS011;40284;52.878;5.998;2023-07-20T09:24:09;2.90;;;1.00;;
54384;SDS011;40284;52.878;5.998;2023-07-20T09:26:43;1.27;;;0.80;;
54384;SDS011;40284;52.878;5.998;2023-07-20T09:29:09;3.25;;;0.85;;
54384;SDS011;40284;52.878;5.998;2023-07-20T09:31:35;1.85;;;1.15;;
54384;SDS011;40284;52.878;5.998;2023-07-20T09:34:01;1.42;;;1.00;;
54384;SDS011;40284;52.878;5.998;2023-07-20T09:36:28;3.58;;;1.10;;
54384;SDS011;40284;52.878;5.998;2023-07-20T09:38:56;1.90;;;0.85;;
54384;SDS011;40284;52.878;5.998;2023-07-20T09:41:24;2.75;;;0.85;;
54384;SDS011;40284;52.878;5.998;2023-07-20T09:43:51;2.40;;;1.00;;
54384;SDS011;40284;52.878;5.998;2023-07-20T09:46:18;3.60;;;1.30;;
54384;SDS011;40284;52.878;5.998;2023-07-20T09:48:54;4.63;;;0.90;;
54384;SDS011;40284;52.878;5.998;2023-07-20T09:51:21;3.08;;;1.00;;
54384;SDS011;40284;52.878;5.998;2023-07-20T09:53:48;0.98;;;0.73;;
54384;SDS011;40284;52.878;5.998;2023-07-20T09:56:15;1.67;;;1.02;;
54384;SDS011;40284;52.878;5.998;2023-07-20T09:58:44;1.45;;;0.80;;
54384;SDS011;40284;52.878;5.998;2023-07-20T10:01:11;3.30;;;1.15;;
54384;SDS011;40284;52.878;5.998;2023-07-20T10:03:39;2.88;;;1.23;;
54384;SDS011;40284;52.878;5.998;2023-07-20T10:06:08;1.83;;;0.80;;
54384;SDS011;40284;52.878;5.998;2023-07-20T10:08:35;0.98;;;0.68;;
54384;SDS011;40284;52.878;5.998;2023-07-20T10:11:07;4.33;;;0.70;;
54384;SDS011;40284;52.878;5.998;2023-07-20T10:13:35;1.70;;;0.80;;
54384;SDS011;40284;52.878;5.998;2023-07-20T10:16:03;4.07;;;0.93;;
54384;SDS011;40284;52.878;5.998;2023-07-20T10:18:35;1.52;;;0.80;;
54384;SDS011;40284;52.878;5.998;2023-07-20T10:21:10;3.05;;;0.80;;
54384;SDS011;40284;52.878;5.998;2023-07-20T10:23:36;1.67;;;0.93;;
54384;SDS011;40284;52.878;5.998;2023-07-20T10:26:02;3.50;;;0.98;;
54384;SDS011;40284;52.878;5.998;2023-07-20T10:28:28;5.35;;;1.15;;
54384;SDS011;40284;52.878;5.998;2023-07-20T10:30:54;2.65;;;0.82;;
54384;SDS011;40284;52.878;5.998;2023-07-20T10:33:21;2.30;;;1.13;;
54384;SDS011;40284;52.878;5.998;2023-07-20T10:35:54;3.75;;;0.90;;
54384;SDS011;40284;52.878;5.998;2023-07-20T10:40:55;1.52;;;0.80;;
54384;SDS011;40284;52.878;5.998;2023-07-20T10:43:21;2.40;;;0.80;;
54384;SDS011;40284;52.878;5.998;2023-07-20T10:45:48;2.47;;;1.10;;
54384;SDS011;40284;52.878;5.998;2023-07-20T10:50:44;3.05;;;1.25;;
54384;SDS011;40284;52.878;5.998;2023-07-20T10:53:14;2.92;;;1.13;;
54384;SDS011;40284;52.878;5.998;2023-07-20T10:55:40;2.03;;;1.10;;
54384;SDS011;40284;52.878;5.998;2023-07-20T11:00:37;2.65;;;1.10;;
54384;SDS011;40284;52.878;5.998;2023-07-20T11:03:03;2.28;;;1.20;;
54384;SDS011;40284;52.878;5.998;2023-07-20T11:05:33;3.38;;;1.27;;
54384;SDS011;40284;52.878;5.998;2023-07-20T11:08:00;2.30;;;1.00;;
54384;SDS011;40284;52.878;5.998;2023-07-20T11:10:27;3.65;;;1.33;;
54384;SDS011;40284;52.878;5.998;2023-07-20T11:15:44;3.08;;;1.10;;
54384;SDS011;40284;52.878;5.998;2023-07-20T11:18:11;3.92;;;1.10;;
54384;SDS011;40284;52.878;5.998;2023-07-20T11:20:37;1.65;;;1.00;;
54384;SDS011;40284;52.878;5.998;2023-07-20T11:23:03;3.60;;;1.00;;
54384;SDS011;40284;52.878;5.998;2023-07-20T11:25:39;2.85;;;0.80;;
54384;SDS011;40284;52.878;5.998;2023-07-20T11:28:09;2.60;;;0.95;;
54384;SDS011;40284;52.878;5.998;2023-07-20T11:30:38;2.28;;;1.15;;
54384;SDS011;40284;52.878;5.998;2023-07-20T11:33:05;3.17;;;1.13;;
54384;SDS011;40284;52.878;5.998;2023-07-20T11:35:34;3.13;;;0.90;;
54384;SDS011;40284;52.878;5.998;2023-07-20T11:38:00;2.83;;;1.08;;
54384;SDS011;40284;52.878;5.998;2023-07-20T11:40:26;4.88;;;0.93;;
54384;SDS011;40284;52.878;5.998;2023-07-20T11:42:52;3.45;;;0.95;;
54384;SDS011;40284;52.878;5.998;2023-07-20T11:45:19;2.35;;;1.17;;
54384;SDS011;40284;52.878;5.998;2023-07-20T11:47:45;2.45;;;1.00;;
54384;SDS011;40284;52.878;5.998;2023-07-20T11:50:11;3.85;;;0.77;;
54384;SDS011;40284;52.878;5.998;2023-07-20T11:52:39;2.08;;;1.17;;
54384;SDS011;40284;52.878;5.998;2023-07-20T11:55:06;7.05;;;0.90;;
54384;SDS011;40284;52.878;5.998;2023-07-20T11:57:32;3.15;;;1.13;;
54384;SDS011;40284;52.878;5.998;2023-07-20T12:00:01;3.15;;;0.90;;
54384;SDS011;40284;52.878;5.998;2023-07-20T12:02:29;2.13;;;1.10;;
54384;SDS011;40284;52.878;5.998;2023-07-20T12:04:56;3.15;;;0.98;;
54384;SDS011;40284;52.878;5.998;2023-07-20T12:07:22;1.40;;;0.80;;
54384;SDS011;40284;52.878;5.998;2023-07-20T12:12:43;1.52;;;0.80;;
54384;SDS011;40284;52.878;5.998;2023-07-20T12:15:24;2.90;;;1.27;;
54384;SDS011;40284;52.878;5.998;2023-07-20T12:17:59;2.88;;;1.10;;
54384;SDS011;40284;52.878;5.998;2023-07-20T12:23:03;3.85;;;1.55;;
54384;SDS011;40284;52.878;5.998;2023-07-20T12:25:34;2.45;;;1.15;;
54384;SDS011;40284;52.878;5.998;2023-07-20T12:28:00;2.97;;;1.27;;
54384;SDS011;40284;52.878;5.998;2023-07-20T12:30:28;2.60;;;1.00;;
54384;SDS011;40284;52.878;5.998;2023-07-20T12:32:54;2.60;;;1.30;;
54384;SDS011;40284;52.878;5.998;2023-07-20T12:35:20;1.75;;;0.95;;
54384;SDS011;40284;52.878;5.998;2023-07-20T12:37:46;3.33;;;1.10;;
54384;SDS011;40284;52.878;5.998;2023-07-20T12:40:14;1.20;;;0.70;;
54384;SDS011;40284;52.878;5.998;2023-07-20T12:42:40;2.03;;;0.80;;
54384;SDS011;40284;52.878;5.998;2023-07-20T12:45:06;1.85;;;0.82;;
54384;SDS011;40284;52.878;5.998;2023-07-20T12:47:32;2.38;;;0.82;;
54384;SDS011;40284;52.878;5.998;2023-07-20T12:49:59;1.52;;;0.75;;
54384;SDS011;40284;52.878;5.998;2023-07-20T12:52:25;1.98;;;0.65;;
54384;SDS011;40284;52.878;5.998;2023-07-20T12:54:51;1.27;;;0.75;;
54384;SDS011;40284;52.878;5.998;2023-07-20T12:57:17;0.43;;;0.43;;
54384;SDS011;40284;52.878;5.998;2023-07-20T12:59:43;2.08;;;0.80;;
54384;SDS011;40284;52.878;5.998;2023-07-20T13:02:09;1.58;;;0.70;;
54384;SDS011;40284;52.878;5.998;2023-07-20T13:04:35;1.13;;;0.63;;
54384;SDS011;40284;52.878;5.998;2023-07-20T13:07:01;1.20;;;0.75;;
54384;SDS011;40284;52.878;5.998;2023-07-20T13:09:27;1.50;;;0.95;;
54384;SDS011;40284;52.878;5.998;2023-07-20T13:11:54;1.67;;;0.93;;
54384;SDS011;40284;52.878;5.998;2023-07-20T13:14:22;1.67;;;0.77;;
54384;SDS011;40284;52.878;5.998;2023-07-20T13:16:49;1.27;;;0.80;;
54384;SDS011;40284;52.878;5.998;2023-07-20T13:19:15;1.98;;;1.10;;
54384;SDS011;40284;52.878;5.998;2023-07-20T13:21:41;1.63;;;0.60;;
54384;SDS011;40284;52.878;5.998;2023-07-20T13:24:07;1.80;;;0.63;;
54384;SDS011;40284;52.878;5.998;2023-07-20T13:26:33;1.80;;;0.70;;
54384;SDS011;40284;52.878;5.998;2023-07-20T13:28:59;2.25;;;0.70;;
54384;SDS011;40284;52.878;5.998;2023-07-20T13:31:25;2.47;;;0.85;;
54384;SDS011;40284;52.878;5.998;2023-07-20T13:33:51;1.40;;;0.85;;
54384;SDS011;40284;52.878;5.998;2023-07-20T13:36:18;2.40;;;0.95;;
54384;SDS011;40284;52.878;5.998;2023-07-20T13:38:46;1.52;;;0.80;;
54384;SDS011;40284;52.878;5.998;2023-07-20T13:41:13;2.35;;;0.90;;
54384;SDS011;40284;52.878;5.998;2023-07-20T13:43:43;2.47;;;0.98;;
54384;SDS011;40284;52.878;5.998;2023-07-20T13:46:09;1.77;;;0.80;;
54384;SDS011;40284;52.878;5.998;2023-07-20T13:48:35;2.88;;;0.80;;
54384;SDS011;40284;52.878;5.998;2023-07-20T13:51:01;2.58;;;0.93;;
54384;SDS011;40284;52.878;5.998;2023-07-20T13:53:27;2.53;;;1.33;;
54384;SDS011;40284;52.878;5.998;2023-07-20T13:55:55;1.98;;;1.08;;
54384;SDS011;40284;52.878;5.998;2023-07-20T13:58:22;2.35;;;0.80;;
54384;SDS011;40284;52.878;5.998;2023-07-20T14:00:48;3.22;;;1.10;;
54384;SDS011;40284;52.878;5.998;2023-07-20T14:03:14;1.77;;;0.93;;
54384;SDS011;40284;52.878;5.998;2023-07-20T14:05:40;1.42;;;0.80;;
54384;SDS011;40284;52.878;5.998;2023-07-20T14:08:06;2.05;;;0.98;;
54384;SDS011;40284;52.878;5.998;2023-07-20T14:10:32;2.83;;;0.90;;
54384;SDS011;40284;52.878;5.998;2023-07-20T14:12:58;2.25;;;0.73;;
54384;SDS011;40284;52.878;5.998;2023-07-20T14:15:24;2.90;;;1.38;;
54384;SDS011;40284;52.878;5.998;2023-07-20T14:17:51;2.40;;;0.88;;
54384;SDS011;40284;52.878;5.998;2023-07-20T14:20:17;1.38;;;0.70;;
54384;SDS011;40284;52.878;5.998;2023-07-20T14:22:43;2.28;;;1.30;;
54384;SDS011;40284;52.878;5.998;2023-07-20T14:25:09;1.98;;;1.00;;
54384;SDS011;40284;52.878;5.998;2023-07-20T14:27:36;2.30;;;0.85;;
54384;SDS011;40284;52.878;5.998;2023-07-20T14:30:02;2.90;;;0.90;;
54384;SDS011;40284;52.878;5.998;2023-07-20T14:32:28;4.65;;;1.20;;
54384;SDS011;40284;52.878;5.998;2023-07-20T14:34:55;1.48;;;0.90;;
54384;SDS011;40284;52.878;5.998;2023-07-20T14:37:21;2.22;;;0.80;;
54384;SDS011;40284;52.878;5.998;2023-07-20T14:39:47;2.33;;;1.00;;
54384;SDS011;40284;52.878;5.998;2023-07-20T14:42:13;3.15;;;1.48;;
54384;SDS011;40284;52.878;5.998;2023-07-20T14:44:39;3.33;;;1.55;;
54384;SDS011;40284;52.878;5.998;2023-07-20T14:47:05;5.60;;;1.13;;
54384;SDS011;40284;52.878;5.998;2023-07-20T14:49:31;1.83;;;0.90;;
54384;SDS011;40284;52.878;5.998;2023-07-20T14:51:57;2.03;;;1.25;;
54384;SDS011;40284;52.878;5.998;2023-07-20T14:54:24;3.67;;;1.35;;
54384;SDS011;40284;52.878;5.998;2023-07-20T14:56:50;1.80;;;0.80;;
54384;SDS011;40284;52.878;5.998;2023-07-20T14:59:18;2.83;;;1.08;;
54384;SDS011;40284;52.878;5.998;2023-07-20T15:01:44;1.75;;;1.10;;
54384;SDS011;40284;52.878;5.998;2023-07-20T15:04:13;3.00;;;1.00;;
54384;SDS011;40284;52.878;5.998;2023-07-20T15:06:40;2.33;;;0.90;;
54384;SDS011;40284;52.878;5.998;2023-07-20T15:09:06;2.35;;;0.93;;
54384;SDS011;40284;52.878;5.998;2023-07-20T15:11:33;3.55;;;1.13;;